Nearby METAR Reports

 

KSLE - Salem, Oregon, USA
Distance from station: NE 1mi, 2km
Updated: Sun, 25-Jul-2021 5:56pm PDT
Clear
Clear
 Wind from N
Wind: N 14 mph , 22 km/h
Temperature: 91°F , 33°C
Dew Point: 48°F , 9°C
Humidity: 23%
Barometer: 29.92 inHg , 1013.2 hPa
Clouds: Clear
Visibility: 10 miles , 16 km
2021/07/26 00:56 KSLE 260056Z 35012KT 10SM CLR 33/09 A2992 RMK AO2 SLP129 T03330094
KMMV - Mcminnville, Oregon, USA
Distance from station: NNW 22mi, 36km
Updated: Sun, 25-Jul-2021 5:53pm PDT
Clear
Clear
 Wind from N
Wind: N 15 mph , 24 km/h, Gust: 21 mph , 33 km/h
Temperature: 90°F , 32°C
Dew Point: 48°F , 9°C
Humidity: 24%
Barometer: 29.93 inHg , 1013.5 hPa
Clouds: Clear
Visibility: 10 miles , 16 km
2021/07/26 00:53 KMMV 260053Z AUTO 01013G18KT 10SM CLR 32/09 A2993 RMK AO2 SLP135 T03220094
 
KUAO - Aurora, Oregon, USA
Distance from station: NNE 28mi, 45km
Updated: Sun, 25-Jul-2021 5:53pm PDT
Clear
Clear
 Wind from NNW
Wind: NNW 9 mph , 15 km/h
Temperature: 90°F , 32°C
Dew Point: 52°F , 11°C
Humidity: 27%
Barometer: 29.94 inHg , 1013.9 hPa
Clouds: Clear
Visibility: 10 miles , 16 km
2021/07/26 00:53 KUAO 260053Z 34008KT 10SM CLR 32/11 A2994 RMK AO2 SLP136 T03220106
KCVO - Corvallis Muni A, Oregon, USA
Distance from station: SSW 29mi, 47km
Updated: Sun, 25-Jul-2021 5:56pm PDT
Clear
Clear
 Wind from NW
Wind: NW 15 mph , 24 km/h
Temperature: 88°F , 31°C
Heat Index: 88°F , 31°C
Dew Point: 61°F , 16°C
Humidity: 40%
Barometer: 29.93 inHg , 1013.5 hPa
Clouds: Clear
Visibility: 10 miles , 16 km
2021/07/26 00:56 KCVO 260056Z AUTO 32013KT 10SM CLR 31/16 A2993 RMK AO2 SLP135 T03110156
 
KHIO - Hillsboro/Portld, Oregon, USA
Distance from station: N 46mi, 74km
Updated: Sun, 25-Jul-2021 5:53pm PDT
Clear
Clear
 Wind from NNW
Wind: NNW 14 mph , 22 km/h
Temperature: 88°F , 31°C
Dew Point: 52°F , 11°C
Humidity: 29%
Barometer: 29.95 inHg , 1014.2 hPa
Clouds: Clear
Visibility: 10 miles , 16 km
2021/07/26 00:53 KHIO 260053Z 33012KT 10SM CLR 31/11 A2995 RMK AO2 SLP140 T03060106